sensor_id;sensor_type;location;lat;lon;timestamp;P1;durP1;ratioP1;P2;durP2;ratioP2
16543;SDS011;8384;47.996;7.786;2022-08-30T00:02:32;10.63;;;8.90;;
16543;SDS011;8384;47.996;7.786;2022-08-30T00:04:59;9.77;;;8.73;;
16543;SDS011;8384;47.996;7.786;2022-08-30T00:07:25;9.80;;;8.57;;
16543;SDS011;8384;47.996;7.786;2022-08-30T00:09:51;9.90;;;8.90;;
16543;SDS011;8384;47.996;7.786;2022-08-30T00:12:16;9.37;;;8.57;;
16543;SDS011;8384;47.996;7.786;2022-08-30T00:14:41;10.43;;;8.90;;
16543;SDS011;8384;47.996;7.786;2022-08-30T00:17:07;9.10;;;8.30;;
16543;SDS011;8384;47.996;7.786;2022-08-30T00:19:32;9.73;;;8.40;;
16543;SDS011;8384;47.996;7.786;2022-08-30T00:21:57;9.33;;;8.40;;
16543;SDS011;8384;47.996;7.786;2022-08-30T00:24:22;9.30;;;8.50;;
16543;SDS011;8384;47.996;7.786;2022-08-30T00:26:48;9.23;;;8.43;;
16543;SDS011;8384;47.996;7.786;2022-08-30T00:29:13;9.77;;;8.80;;
16543;SDS011;8384;47.996;7.786;2022-08-30T00:31:38;9.73;;;8.93;;
16543;SDS011;8384;47.996;7.786;2022-08-30T00:34:03;9.43;;;8.63;;
16543;SDS011;8384;47.996;7.786;2022-08-30T00:36:29;10.07;;;9.10;;
16543;SDS011;8384;47.996;7.786;2022-08-30T00:38:54;9.80;;;8.80;;
16543;SDS011;8384;47.996;7.786;2022-08-30T00:41:19;9.07;;;8.03;;
16543;SDS011;8384;47.996;7.786;2022-08-30T00:43:46;8.73;;;7.93;;
16543;SDS011;8384;47.996;7.786;2022-08-30T00:46:11;9.73;;;8.70;;
16543;SDS011;8384;47.996;7.786;2022-08-30T00:48:38;9.37;;;8.43;;
16543;SDS011;8384;47.996;7.786;2022-08-30T00:51:07;9.30;;;8.53;;
16543;SDS011;8384;47.996;7.786;2022-08-30T00:53:36;9.80;;;8.80;;
16543;SDS011;8384;47.996;7.786;2022-08-30T00:56:05;9.10;;;8.33;;
16543;SDS011;8384;47.996;7.786;2022-08-30T00:58:33;9.10;;;8.20;;
16543;SDS011;8384;47.996;7.786;2022-08-30T01:01:01;9.77;;;8.87;;
16543;SDS011;8384;47.996;7.786;2022-08-30T01:03:29;9.47;;;8.57;;
16543;SDS011;8384;47.996;7.786;2022-08-30T01:05:55;9.40;;;8.50;;
16543;SDS011;8384;47.996;7.786;2022-08-30T01:08:22;9.50;;;8.60;;
16543;SDS011;8384;47.996;7.786;2022-08-30T01:10:48;9.10;;;8.20;;
16543;SDS011;8384;47.996;7.786;2022-08-30T01:13:15;9.13;;;8.07;;
16543;SDS011;8384;47.996;7.786;2022-08-30T01:15:41;8.30;;;7.70;;
16543;SDS011;8384;47.996;7.786;2022-08-30T01:18:08;9.60;;;8.70;;
16543;SDS011;8384;47.996;7.786;2022-08-30T01:20:39;9.27;;;8.50;;
16543;SDS011;8384;47.996;7.786;2022-08-30T01:23:14;9.73;;;8.67;;
16543;SDS011;8384;47.996;7.786;2022-08-30T01:25:42;9.37;;;8.47;;
16543;SDS011;8384;47.996;7.786;2022-08-30T01:28:13;9.17;;;8.10;;
16543;SDS011;8384;47.996;7.786;2022-08-30T01:30:42;9.33;;;8.40;;
16543;SDS011;8384;47.996;7.786;2022-08-30T01:33:08;9.73;;;8.53;;
16543;SDS011;8384;47.996;7.786;2022-08-30T01:35:44;9.50;;;8.53;;
16543;SDS011;8384;47.996;7.786;2022-08-30T01:38:17;9.17;;;8.37;;
16543;SDS011;8384;47.996;7.786;2022-08-30T01:40:45;11.37;;;9.37;;
16543;SDS011;8384;47.996;7.786;2022-08-30T01:43:11;9.17;;;8.33;;
16543;SDS011;8384;47.996;7.786;2022-08-30T01:45:38;9.47;;;8.57;;
16543;SDS011;8384;47.996;7.786;2022-08-30T01:48:03;9.10;;;8.40;;
16543;SDS011;8384;47.996;7.786;2022-08-30T01:50:28;9.90;;;8.97;;
16543;SDS011;8384;47.996;7.786;2022-08-30T01:52:54;10.33;;;9.23;;
16543;SDS011;8384;47.996;7.786;2022-08-30T01:55:19;10.13;;;9.23;;
16543;SDS011;8384;47.996;7.786;2022-08-30T01:57:44;9.73;;;8.87;;
16543;SDS011;8384;47.996;7.786;2022-08-30T02:00:11;8.83;;;7.73;;
16543;SDS011;8384;47.996;7.786;2022-08-30T02:02:37;8.90;;;8.10;;
16543;SDS011;8384;47.996;7.786;2022-08-30T02:05:03;9.27;;;8.47;;
16543;SDS011;8384;47.996;7.786;2022-08-30T02:07:29;9.40;;;8.17;;
16543;SDS011;8384;47.996;7.786;2022-08-30T02:09:54;9.10;;;8.13;;
16543;SDS011;8384;47.996;7.786;2022-08-30T02:12:20;9.27;;;8.03;;
16543;SDS011;8384;47.996;7.786;2022-08-30T02:14:45;9.20;;;8.30;;
16543;SDS011;8384;47.996;7.786;2022-08-30T02:17:12;8.43;;;7.67;;
16543;SDS011;8384;47.996;7.786;2022-08-30T02:19:39;9.13;;;8.20;;
16543;SDS011;8384;47.996;7.786;2022-08-30T02:22:05;8.30;;;7.60;;
16543;SDS011;8384;47.996;7.786;2022-08-30T02:24:31;8.43;;;7.50;;
16543;SDS011;8384;47.996;7.786;2022-08-30T02:26:56;8.57;;;7.77;;
16543;SDS011;8384;47.996;7.786;2022-08-30T02:29:22;9.17;;;7.70;;
16543;SDS011;8384;47.996;7.786;2022-08-30T02:31:48;8.50;;;7.70;;
16543;SDS011;8384;47.996;7.786;2022-08-30T02:34:14;7.60;;;7.00;;
16543;SDS011;8384;47.996;7.786;2022-08-30T02:36:40;8.40;;;7.60;;
16543;SDS011;8384;47.996;7.786;2022-08-30T02:39:06;12.57;;;7.90;;
16543;SDS011;8384;47.996;7.786;2022-08-30T02:41:35;10.07;;;7.90;;
16543;SDS011;8384;47.996;7.786;2022-08-30T02:44:02;8.23;;;7.37;;
16543;SDS011;8384;47.996;7.786;2022-08-30T02:46:28;8.63;;;7.83;;
16543;SDS011;8384;47.996;7.786;2022-08-30T02:48:53;8.07;;;7.03;;
16543;SDS011;8384;47.996;7.786;2022-08-30T02:51:19;8.00;;;7.30;;
16543;SDS011;8384;47.996;7.786;2022-08-30T02:53:44;8.17;;;7.40;;
16543;SDS011;8384;47.996;7.786;2022-08-30T02:56:10;7.73;;;7.03;;
16543;SDS011;8384;47.996;7.786;2022-08-30T02:58:37;7.90;;;7.30;;
16543;SDS011;8384;47.996;7.786;2022-08-30T03:01:03;8.23;;;7.43;;
16543;SDS011;8384;47.996;7.786;2022-08-30T03:03:29;8.33;;;7.67;;
16543;SDS011;8384;47.996;7.786;2022-08-30T03:05:55;8.53;;;7.77;;
16543;SDS011;8384;47.996;7.786;2022-08-30T03:08:20;8.20;;;7.40;;
16543;SDS011;8384;47.996;7.786;2022-08-30T03:10:46;8.57;;;7.50;;
16543;SDS011;8384;47.996;7.786;2022-08-30T03:13:12;8.57;;;7.80;;
16543;SDS011;8384;47.996;7.786;2022-08-30T03:15:37;8.90;;;8.07;;
16543;SDS011;8384;47.996;7.786;2022-08-30T03:18:04;8.17;;;7.57;;
16543;SDS011;8384;47.996;7.786;2022-08-30T03:20:30;8.77;;;7.40;;
16543;SDS011;8384;47.996;7.786;2022-08-30T03:22:56;9.40;;;7.70;;
16543;SDS011;8384;47.996;7.786;2022-08-30T03:25:21;9.10;;;7.90;;
16543;SDS011;8384;47.996;7.786;2022-08-30T03:27:48;8.50;;;7.60;;
16543;SDS011;8384;47.996;7.786;2022-08-30T03:30:14;8.27;;;7.63;;
16543;SDS011;8384;47.996;7.786;2022-08-30T03:32:41;9.07;;;8.37;;
16543;SDS011;8384;47.996;7.786;2022-08-30T03:35:06;8.57;;;7.87;;
16543;SDS011;8384;47.996;7.786;2022-08-30T03:37:32;8.17;;;7.57;;
16543;SDS011;8384;47.996;7.786;2022-08-30T03:39:57;8.47;;;7.77;;
16543;SDS011;8384;47.996;7.786;2022-08-30T03:42:23;8.97;;;8.17;;
16543;SDS011;8384;47.996;7.786;2022-08-30T03:44:48;9.63;;;8.63;;
16543;SDS011;8384;47.996;7.786;2022-08-30T03:47:13;9.10;;;8.07;;
16543;SDS011;8384;47.996;7.786;2022-08-30T03:49:39;9.47;;;8.47;;
16543;SDS011;8384;47.996;7.786;2022-08-30T03:52:04;9.30;;;8.37;;
16543;SDS011;8384;47.996;7.786;2022-08-30T03:54:29;8.87;;;8.17;;
16543;SDS011;8384;47.996;7.786;2022-08-30T03:56:55;9.10;;;8.30;;
16543;SDS011;8384;47.996;7.786;2022-08-30T03:59:20;10.10;;;9.10;;
16543;SDS011;8384;47.996;7.786;2022-08-30T04:01:46;8.60;;;7.80;;
16543;SDS011;8384;47.996;7.786;2022-08-30T04:04:11;9.77;;;8.23;;
16543;SDS011;8384;47.996;7.786;2022-08-30T04:06:37;8.97;;;8.13;;
16543;SDS011;8384;47.996;7.786;2022-08-30T04:09:03;8.77;;;8.07;;
16543;SDS011;8384;47.996;7.786;2022-08-30T04:11:28;9.20;;;7.63;;
16543;SDS011;8384;47.996;7.786;2022-08-30T04:13:54;9.67;;;8.40;;
16543;SDS011;8384;47.996;7.786;2022-08-30T04:16:20;8.13;;;7.43;;
16543;SDS011;8384;47.996;7.786;2022-08-30T04:18:47;8.60;;;7.77;;
16543;SDS011;8384;47.996;7.786;2022-08-30T04:21:13;8.47;;;7.67;;
16543;SDS011;8384;47.996;7.786;2022-08-30T04:23:39;9.47;;;8.13;;
16543;SDS011;8384;47.996;7.786;2022-08-30T04:26:05;9.43;;;8.40;;
16543;SDS011;8384;47.996;7.786;2022-08-30T04:28:30;9.83;;;8.83;;
16543;SDS011;8384;47.996;7.786;2022-08-30T04:30:55;9.87;;;8.37;;
16543;SDS011;8384;47.996;7.786;2022-08-30T04:33:21;10.40;;;9.27;;
16543;SDS011;8384;47.996;7.786;2022-08-30T04:35:47;10.23;;;8.17;;
16543;SDS011;8384;47.996;7.786;2022-08-30T04:38:13;10.20;;;9.27;;
16543;SDS011;8384;47.996;7.786;2022-08-30T04:40:41;8.80;;;8.03;;
16543;SDS011;8384;47.996;7.786;2022-08-30T04:43:08;10.17;;;8.90;;
16543;SDS011;8384;47.996;7.786;2022-08-30T04:45:33;9.27;;;8.37;;
16543;SDS011;8384;47.996;7.786;2022-08-30T04:47:59;10.23;;;9.17;;
16543;SDS011;8384;47.996;7.786;2022-08-30T04:50:24;10.37;;;9.37;;
16543;SDS011;8384;47.996;7.786;2022-08-30T04:52:49;13.23;;;9.30;;
16543;SDS011;8384;47.996;7.786;2022-08-30T04:55:15;9.97;;;8.10;;
16543;SDS011;8384;47.996;7.786;2022-08-30T04:57:41;9.17;;;8.27;;
16543;SDS011;8384;47.996;7.786;2022-08-30T05:00:07;10.40;;;8.10;;
16543;SDS011;8384;47.996;7.786;2022-08-30T05:02:35;9.50;;;8.60;;
16543;SDS011;8384;47.996;7.786;2022-08-30T05:05:02;9.33;;;8.53;;
16543;SDS011;8384;47.996;7.786;2022-08-30T05:07:46;9.80;;;8.90;;
16543;SDS011;8384;47.996;7.786;2022-08-30T05:10:11;9.43;;;8.40;;
16543;SDS011;8384;47.996;7.786;2022-08-30T05:12:37;8.37;;;7.50;;
16543;SDS011;8384;47.996;7.786;2022-08-30T05:15:03;8.63;;;7.87;;
16543;SDS011;8384;47.996;7.786;2022-08-30T05:17:28;8.53;;;7.73;;
16543;SDS011;8384;47.996;7.786;2022-08-30T05:19:54;8.10;;;7.50;;
16543;SDS011;8384;47.996;7.786;2022-08-30T05:22:19;9.47;;;8.30;;
16543;SDS011;8384;47.996;7.786;2022-08-30T05:24:44;8.70;;;7.83;;
16543;SDS011;8384;47.996;7.786;2022-08-30T05:27:09;9.33;;;7.80;;
16543;SDS011;8384;47.996;7.786;2022-08-30T05:29:35;8.97;;;7.20;;
16543;SDS011;8384;47.996;7.786;2022-08-30T05:32:00;7.57;;;6.87;;
16543;SDS011;8384;47.996;7.786;2022-08-30T05:34:28;8.20;;;7.27;;
16543;SDS011;8384;47.996;7.786;2022-08-30T05:36:54;7.50;;;6.80;;
16543;SDS011;8384;47.996;7.786;2022-08-30T05:39:19;7.43;;;6.73;;
16543;SDS011;8384;47.996;7.786;2022-08-30T05:41:45;7.83;;;6.93;;
16543;SDS011;8384;47.996;7.786;2022-08-30T05:44:10;8.87;;;7.43;;
16543;SDS011;8384;47.996;7.786;2022-08-30T05:46:36;11.17;;;7.70;;
16543;SDS011;8384;47.996;7.786;2022-08-30T05:49:04;8.90;;;8.10;;
16543;SDS011;8384;47.996;7.786;2022-08-30T05:51:32;8.53;;;7.80;;
16543;SDS011;8384;47.996;7.786;2022-08-30T05:53:58;8.60;;;7.80;;
16543;SDS011;8384;47.996;7.786;2022-08-30T05:56:25;8.97;;;8.20;;
16543;SDS011;8384;47.996;7.786;2022-08-30T05:58:54;8.57;;;7.70;;
16543;SDS011;8384;47.996;7.786;2022-08-30T06:03:49;8.47;;;7.67;;
16543;SDS011;8384;47.996;7.786;2022-08-30T06:06:16;8.50;;;7.70;;
16543;SDS011;8384;47.996;7.786;2022-08-30T06:08:41;8.33;;;7.53;;
16543;SDS011;8384;47.996;7.786;2022-08-30T06:11:09;9.77;;;8.77;;
16543;SDS011;8384;47.996;7.786;2022-08-30T06:13:35;9.77;;;8.87;;
16543;SDS011;8384;47.996;7.786;2022-08-30T06:16:00;10.00;;;9.10;;
16543;SDS011;8384;47.996;7.786;2022-08-30T06:18:26;10.23;;;9.27;;
16543;SDS011;8384;47.996;7.786;2022-08-30T06:20:51;10.30;;;9.40;;
16543;SDS011;8384;47.996;7.786;2022-08-30T06:23:16;8.03;;;7.37;;
16543;SDS011;8384;47.996;7.786;2022-08-30T06:25:42;10.13;;;8.60;;
16543;SDS011;8384;47.996;7.786;2022-08-30T06:28:08;10.33;;;7.93;;
16543;SDS011;8384;47.996;7.786;2022-08-30T06:30:34;8.77;;;7.87;;
16543;SDS011;8384;47.996;7.786;2022-08-30T06:33:00;8.90;;;8.10;;
16543;SDS011;8384;47.996;7.786;2022-08-30T06:35:25;9.63;;;8.67;;
16543;SDS011;8384;47.996;7.786;2022-08-30T06:37:51;9.50;;;8.50;;
16543;SDS011;8384;47.996;7.786;2022-08-30T06:40:17;10.57;;;9.17;;
16543;SDS011;8384;47.996;7.786;2022-08-30T06:42:44;10.13;;;9.13;;
16543;SDS011;8384;47.996;7.786;2022-08-30T06:45:10;10.37;;;9.20;;
16543;SDS011;8384;47.996;7.786;2022-08-30T06:47:35;9.87;;;9.00;;
16543;SDS011;8384;47.996;7.786;2022-08-30T06:50:00;10.90;;;9.70;;
16543;SDS011;8384;47.996;7.786;2022-08-30T06:52:25;9.47;;;8.67;;
16543;SDS011;8384;47.996;7.786;2022-08-30T06:54:52;10.47;;;9.43;;
16543;SDS011;8384;47.996;7.786;2022-08-30T06:57:18;9.57;;;8.77;;
16543;SDS011;8384;47.996;7.786;2022-08-30T06:59:44;9.17;;;8.30;;
16543;SDS011;8384;47.996;7.786;2022-08-30T07:02:09;9.27;;;8.27;;
16543;SDS011;8384;47.996;7.786;2022-08-30T07:04:34;9.23;;;7.83;;
16543;SDS011;8384;47.996;7.786;2022-08-30T07:06:59;9.13;;;8.23;;
16543;SDS011;8384;47.996;7.786;2022-08-30T07:09:25;8.97;;;8.23;;
16543;SDS011;8384;47.996;7.786;2022-08-30T07:11:51;8.87;;;8.00;;
16543;SDS011;8384;47.996;7.786;2022-08-30T07:14:17;8.77;;;7.90;;
16543;SDS011;8384;47.996;7.786;2022-08-30T07:16:44;10.07;;;9.07;;
16543;SDS011;8384;47.996;7.786;2022-08-30T07:19:09;9.13;;;8.37;;
16543;SDS011;8384;47.996;7.786;2022-08-30T07:21:36;9.93;;;9.03;;
16543;SDS011;8384;47.996;7.786;2022-08-30T07:24:04;10.17;;;9.27;;
16543;SDS011;8384;47.996;7.786;2022-08-30T07:26:35;9.40;;;8.50;;
16543;SDS011;8384;47.996;7.786;2022-08-30T07:29:02;9.53;;;8.73;;
16543;SDS011;8384;47.996;7.786;2022-08-30T07:31:28;9.77;;;8.80;;
16543;SDS011;8384;47.996;7.786;2022-08-30T07:33:54;9.60;;;8.80;;
16543;SDS011;8384;47.996;7.786;2022-08-30T07:36:20;9.60;;;8.80;;
16543;SDS011;8384;47.996;7.786;2022-08-30T07:38:46;8.93;;;8.13;;
16543;SDS011;8384;47.996;7.786;2022-08-30T07:41:15;8.77;;;8.07;;
16543;SDS011;8384;47.996;7.786;2022-08-30T07:43:51;9.00;;;8.30;;
16543;SDS011;8384;47.996;7.786;2022-08-30T07:46:17;9.00;;;8.20;;
16543;SDS011;8384;47.996;7.786;2022-08-30T07:48:43;8.67;;;7.87;;
16543;SDS011;8384;47.996;7.786;2022-08-30T07:51:13;9.30;;;8.40;;
16543;SDS011;8384;47.996;7.786;2022-08-30T07:53:40;7.93;;;7.33;;
16543;SDS011;8384;47.996;7.786;2022-08-30T07:56:05;8.27;;;7.47;;
16543;SDS011;8384;47.996;7.786;2022-08-30T07:58:31;8.90;;;8.10;;
16543;SDS011;8384;47.996;7.786;2022-08-30T08:00:57;8.57;;;7.83;;
16543;SDS011;8384;47.996;7.786;2022-08-30T08:03:26;7.97;;;7.17;;
16543;SDS011;8384;47.996;7.786;2022-08-30T08:05:51;8.60;;;7.70;;
16543;SDS011;8384;47.996;7.786;2022-08-30T08:08:17;8.07;;;7.37;;
16543;SDS011;8384;47.996;7.786;2022-08-30T08:10:43;8.03;;;7.27;;
16543;SDS011;8384;47.996;7.786;2022-08-30T08:13:08;7.83;;;7.23;;
16543;SDS011;8384;47.996;7.786;2022-08-30T08:15:34;8.57;;;7.43;;
16543;SDS011;8384;47.996;7.786;2022-08-30T08:17:59;7.33;;;6.83;;
16543;SDS011;8384;47.996;7.786;2022-08-30T08:20:25;8.80;;;7.93;;
16543;SDS011;8384;47.996;7.786;2022-08-30T08:22:51;8.80;;;8.00;;
16543;SDS011;8384;47.996;7.786;2022-08-30T08:25:16;7.33;;;6.73;;
16543;SDS011;8384;47.996;7.786;2022-08-30T08:27:42;7.90;;;7.20;;
16543;SDS011;8384;47.996;7.786;2022-08-30T08:30:11;8.83;;;7.33;;
16543;SDS011;8384;47.996;7.786;2022-08-30T08:32:36;8.27;;;7.57;;
16543;SDS011;8384;47.996;7.786;2022-08-30T08:35:02;7.50;;;6.90;;
16543;SDS011;8384;47.996;7.786;2022-08-30T08:37:27;7.63;;;6.93;;
16543;SDS011;8384;47.996;7.786;2022-08-30T08:39:52;7.60;;;7.00;;
16543;SDS011;8384;47.996;7.786;2022-08-30T08:45:20;7.43;;;6.93;;
16543;SDS011;8384;47.996;7.786;2022-08-30T08:48:33;7.87;;;7.23;;
16543;SDS011;8384;47.996;7.786;2022-08-30T08:50:54;8.27;;;7.53;;
16543;SDS011;8384;47.996;7.786;2022-08-30T08:53:38;6.87;;;6.27;;
16543;SDS011;8384;47.996;7.786;2022-08-30T08:56:06;7.67;;;6.90;;
16543;SDS011;8384;47.996;7.786;2022-08-30T08:58:41;8.87;;;6.50;;
16543;SDS011;8384;47.996;7.786;2022-08-30T09:01:09;6.83;;;6.33;;
16543;SDS011;8384;47.996;7.786;2022-08-30T09:03:37;6.63;;;6.10;;
16543;SDS011;8384;47.996;7.786;2022-08-30T09:06:04;7.77;;;6.60;;
16543;SDS011;8384;47.996;7.786;2022-08-30T09:08:42;7.47;;;6.00;;
16543;SDS011;8384;47.996;7.786;2022-08-30T09:11:07;7.67;;;6.47;;
16543;SDS011;8384;47.996;7.786;2022-08-30T09:13:40;6.53;;;6.00;;
16543;SDS011;8384;47.996;7.786;2022-08-30T09:16:06;7.30;;;5.90;;
16543;SDS011;8384;47.996;7.786;2022-08-30T09:18:41;6.03;;;5.53;;
16543;SDS011;8384;47.996;7.786;2022-08-30T09:21:13;6.30;;;5.67;;
16543;SDS011;8384;47.996;7.786;2022-08-30T09:23:48;8.30;;;6.27;;
16543;SDS011;8384;47.996;7.786;2022-08-30T09:26:26;7.77;;;5.97;;
16543;SDS011;8384;47.996;7.786;2022-08-30T09:28:54;5.63;;;4.97;;
16543;SDS011;8384;47.996;7.786;2022-08-30T09:31:23;8.90;;;5.87;;
16543;SDS011;8384;47.996;7.786;2022-08-30T09:34:06;6.00;;;5.50;;
16543;SDS011;8384;47.996;7.786;2022-08-30T09:36:40;5.97;;;5.37;;
16543;SDS011;8384;47.996;7.786;2022-08-30T09:39:16;5.47;;;4.97;;
16543;SDS011;8384;47.996;7.786;2022-08-30T09:41:47;5.27;;;4.87;;
16543;SDS011;8384;47.996;7.786;2022-08-30T09:46:45;5.77;;;5.30;;
16543;SDS011;8384;47.996;7.786;2022-08-30T09:58:04;6.70;;;6.07;;
16543;SDS011;8384;47.996;7.786;2022-08-30T10:00:38;6.53;;;5.93;;
16543;SDS011;8384;47.996;7.786;2022-08-30T10:03:20;7.40;;;5.73;;
16543;SDS011;8384;47.996;7.786;2022-08-30T10:06:04;6.10;;;5.60;;
16543;SDS011;8384;47.996;7.786;2022-08-30T10:14:15;6.27;;;5.67;;
16543;SDS011;8384;47.996;7.786;2022-08-30T10:25:18;6.33;;;5.83;;
16543;SDS011;8384;47.996;7.786;2022-08-30T10:27:52;6.53;;;6.03;;
16543;SDS011;8384;47.996;7.786;2022-08-30T10:30:22;6.23;;;5.57;;
16543;SDS011;8384;47.996;7.786;2022-08-30T10:32:50;6.20;;;5.60;;
16543;SDS011;8384;47.996;7.786;2022-08-30T10:35:23;7.77;;;5.63;;
16543;SDS011;8384;47.996;7.786;2022-08-30T10:38:05;7.17;;;5.80;;
16543;SDS011;8384;47.996;7.786;2022-08-30T10:40:36;6.37;;;5.77;;
16543;SDS011;8384;47.996;7.786;2022-08-30T10:45:50;5.90;;;5.30;;
16543;SDS011;8384;47.996;7.786;2022-08-30T10:48:20;5.50;;;5.10;;
16543;SDS011;8384;47.996;7.786;2022-08-30T10:50:51;5.97;;;5.47;;
16543;SDS011;8384;47.996;7.786;2022-08-30T10:53:38;7.23;;;5.47;;
16543;SDS011;8384;47.996;7.786;2022-08-30T10:56:08;5.57;;;5.17;;
16543;SDS011;8384;47.996;7.786;2022-08-30T10:58:36;6.83;;;6.13;;
16543;SDS011;8384;47.996;7.786;2022-08-30T11:01:13;6.40;;;5.73;;
16543;SDS011;8384;47.996;7.786;2022-08-30T11:04:12;7.80;;;5.77;;
16543;SDS011;8384;47.996;7.786;2022-08-30T11:07:16;5.97;;;5.47;;
16543;SDS011;8384;47.996;7.786;2022-08-30T11:15:35;5.63;;;5.13;;
16543;SDS011;8384;47.996;7.786;2022-08-30T11:18:18;5.77;;;5.20;;
16543;SDS011;8384;47.996;7.786;2022-08-30T11:20:45;5.87;;;5.30;;
16543;SDS011;8384;47.996;7.786;2022-08-30T11:23:24;6.40;;;4.90;;
16543;SDS011;8384;47.996;7.786;2022-08-30T11:25:59;5.43;;;4.93;;
16543;SDS011;8384;47.996;7.786;2022-08-30T11:33:45;6.00;;;4.90;;
16543;SDS011;8384;47.996;7.786;2022-08-30T11:37:03;5.30;;;4.90;;
16543;SDS011;8384;47.996;7.786;2022-08-30T11:46:49;5.60;;;5.10;;
16543;SDS011;8384;47.996;7.786;2022-08-30T11:58:08;5.40;;;4.87;;
16543;SDS011;8384;47.996;7.786;2022-08-30T12:03:57;5.27;;;4.90;;
16543;SDS011;8384;47.996;7.786;2022-08-30T12:06:47;5.30;;;4.77;;
16543;SDS011;8384;47.996;7.786;2022-08-30T12:11:52;5.33;;;4.93;;
16543;SDS011;8384;47.996;7.786;2022-08-30T12:14:35;5.87;;;5.27;;
16543;SDS011;8384;47.996;7.786;2022-08-30T12:17:32;6.33;;;5.03;;
16543;SDS011;8384;47.996;7.786;2022-08-30T12:20:40;5.27;;;4.73;;
16543;SDS011;8384;47.996;7.786;2022-08-30T12:23:12;5.50;;;5.00;;
16543;SDS011;8384;47.996;7.786;2022-08-30T12:25:44;5.53;;;4.90;;
16543;SDS011;8384;47.996;7.786;2022-08-30T12:30:34;5.93;;;5.43;;
16543;SDS011;8384;47.996;7.786;2022-08-30T12:33:03;6.10;;;4.83;;
16543;SDS011;8384;47.996;7.786;2022-08-30T12:35:29;6.17;;;5.33;;
16543;SDS011;8384;47.996;7.786;2022-08-30T12:37:59;6.00;;;5.37;;
16543;SDS011;8384;47.996;7.786;2022-08-30T12:40:27;6.70;;;6.10;;
16543;SDS011;8384;47.996;7.786;2022-08-30T12:42:59;5.70;;;5.20;;
16543;SDS011;8384;47.996;7.786;2022-08-30T12:45:28;8.03;;;5.63;;
16543;SDS011;8384;47.996;7.786;2022-08-30T12:50:29;5.97;;;5.43;;
16543;SDS011;8384;47.996;7.786;2022-08-30T12:52:59;6.60;;;5.77;;
16543;SDS011;8384;47.996;7.786;2022-08-30T12:55:29;5.70;;;5.30;;
16543;SDS011;8384;47.996;7.786;2022-08-30T12:58:09;7.80;;;5.77;;
16543;SDS011;8384;47.996;7.786;2022-08-30T13:00:39;6.97;;;5.43;;
16543;SDS011;8384;47.996;7.786;2022-08-30T13:05:46;6.17;;;5.67;;
16543;SDS011;8384;47.996;7.786;2022-08-30T13:08:19;5.83;;;5.33;;
16543;SDS011;8384;47.996;7.786;2022-08-30T13:11:02;5.77;;;5.20;;
16543;SDS011;8384;47.996;7.786;2022-08-30T13:13:37;5.63;;;5.20;;
16543;SDS011;8384;47.996;7.786;2022-08-30T13:18:42;5.97;;;5.13;;
16543;SDS011;8384;47.996;7.786;2022-08-30T13:23:45;5.83;;;5.23;;
16543;SDS011;8384;47.996;7.786;2022-08-30T13:26:11;5.80;;;5.30;;
16543;SDS011;8384;47.996;7.786;2022-08-30T13:31:16;6.43;;;5.83;;
16543;SDS011;8384;47.996;7.786;2022-08-30T13:33:42;6.17;;;5.40;;
16543;SDS011;8384;47.996;7.786;2022-08-30T13:36:12;5.47;;;4.97;;
16543;SDS011;8384;47.996;7.786;2022-08-30T13:38:38;5.90;;;5.40;;
16543;SDS011;8384;47.996;7.786;2022-08-30T13:41:04;5.80;;;5.37;;
16543;SDS011;8384;47.996;7.786;2022-08-30T13:43:29;6.27;;;5.67;;
16543;SDS011;8384;47.996;7.786;2022-08-30T13:45:54;6.40;;;5.73;;
16543;SDS011;8384;47.996;7.786;2022-08-30T13:48:22;6.40;;;5.80;;
16543;SDS011;8384;47.996;7.786;2022-08-30T13:50:47;6.20;;;5.70;;
16543;SDS011;8384;47.996;7.786;2022-08-30T13:53:13;6.23;;;5.63;;
16543;SDS011;8384;47.996;7.786;2022-08-30T13:55:38;6.57;;;6.00;;
16543;SDS011;8384;47.996;7.786;2022-08-30T13:58:05;5.70;;;5.07;;
16543;SDS011;8384;47.996;7.786;2022-08-30T14:00:30;5.83;;;5.33;;
16543;SDS011;8384;47.996;7.786;2022-08-30T14:02:56;6.03;;;5.53;;
16543;SDS011;8384;47.996;7.786;2022-08-30T14:05:23;5.93;;;5.37;;
16543;SDS011;8384;47.996;7.786;2022-08-30T14:07:56;6.00;;;5.50;;
16543;SDS011;8384;47.996;7.786;2022-08-30T14:10:23;5.50;;;5.10;;
16543;SDS011;8384;47.996;7.786;2022-08-30T14:12:52;6.10;;;5.47;;
16543;SDS011;8384;47.996;7.786;2022-08-30T14:15:17;5.60;;;5.13;;
16543;SDS011;8384;47.996;7.786;2022-08-30T14:17:43;6.97;;;5.27;;
16543;SDS011;8384;47.996;7.786;2022-08-30T14:20:08;5.47;;;4.83;;
16543;SDS011;8384;47.996;7.786;2022-08-30T14:22:34;5.17;;;4.77;;
16543;SDS011;8384;47.996;7.786;2022-08-30T14:24:59;5.17;;;4.77;;
16543;SDS011;8384;47.996;7.786;2022-08-30T14:27:27;4.67;;;4.30;;
16543;SDS011;8384;47.996;7.786;2022-08-30T14:29:52;5.53;;;5.03;;
16543;SDS011;8384;47.996;7.786;2022-08-30T14:32:18;5.43;;;5.03;;
16543;SDS011;8384;47.996;7.786;2022-08-30T14:34:43;6.00;;;5.50;;
16543;SDS011;8384;47.996;7.786;2022-08-30T14:37:08;5.60;;;5.10;;
16543;SDS011;8384;47.996;7.786;2022-08-30T14:39:34;6.57;;;5.40;;
16543;SDS011;8384;47.996;7.786;2022-08-30T14:41:59;5.80;;;5.33;;
16543;SDS011;8384;47.996;7.786;2022-08-30T14:44:25;5.63;;;5.13;;
16543;SDS011;8384;47.996;7.786;2022-08-30T14:46:50;5.80;;;5.40;;
16543;SDS011;8384;47.996;7.786;2022-08-30T14:49:16;5.67;;;5.17;;
16543;SDS011;8384;47.996;7.786;2022-08-30T14:51:43;5.93;;;5.40;;
16543;SDS011;8384;47.996;7.786;2022-08-30T14:54:12;5.73;;;5.23;;
16543;SDS011;8384;47.996;7.786;2022-08-30T14:56:46;5.57;;;5.17;;
16543;SDS011;8384;47.996;7.786;2022-08-30T14:59:11;5.70;;;5.20;;
16543;SDS011;8384;47.996;7.786;2022-08-30T15:01:37;5.67;;;5.13;;
16543;SDS011;8384;47.996;7.786;2022-08-30T15:04:03;5.77;;;5.13;;
16543;SDS011;8384;47.996;7.786;2022-08-30T15:06:29;5.23;;;4.73;;
16543;SDS011;8384;47.996;7.786;2022-08-30T15:08:55;5.67;;;5.07;;
16543;SDS011;8384;47.996;7.786;2022-08-30T15:11:21;5.90;;;5.30;;
16543;SDS011;8384;47.996;7.786;2022-08-30T15:13:47;5.53;;;5.13;;
16543;SDS011;8384;47.996;7.786;2022-08-30T15:16:14;5.37;;;4.97;;
16543;SDS011;8384;47.996;7.786;2022-08-30T15:18:42;5.30;;;4.63;;
16543;SDS011;8384;47.996;7.786;2022-08-30T15:21:08;5.80;;;5.30;;
16543;SDS011;8384;47.996;7.786;2022-08-30T15:23:34;5.73;;;5.33;;
16543;SDS011;8384;47.996;7.786;2022-08-30T15:25:59;5.03;;;4.53;;
16543;SDS011;8384;47.996;7.786;2022-08-30T15:28:24;5.67;;;5.17;;
16543;SDS011;8384;47.996;7.786;2022-08-30T15:30:50;5.67;;;5.17;;
16543;SDS011;8384;47.996;7.786;2022-08-30T15:33:15;5.47;;;5.07;;
16543;SDS011;8384;47.996;7.786;2022-08-30T15:35:41;5.43;;;5.03;;
16543;SDS011;8384;47.996;7.786;2022-08-30T15:38:06;5.93;;;4.90;;
16543;SDS011;8384;47.996;7.786;2022-08-30T15:40:31;5.57;;;5.07;;
16543;SDS011;8384;47.996;7.786;2022-08-30T15:42:57;6.90;;;4.97;;
16543;SDS011;8384;47.996;7.786;2022-08-30T15:45:23;5.73;;;4.90;;
16543;SDS011;8384;47.996;7.786;2022-08-30T15:47:48;5.60;;;5.10;;
16543;SDS011;8384;47.996;7.786;2022-08-30T15:50:13;5.60;;;5.10;;
16543;SDS011;8384;47.996;7.786;2022-08-30T15:52:39;5.07;;;4.67;;
16543;SDS011;8384;47.996;7.786;2022-08-30T15:55:05;5.13;;;4.70;;
16543;SDS011;8384;47.996;7.786;2022-08-30T15:57:31;6.80;;;5.00;;
16543;SDS011;8384;47.996;7.786;2022-08-30T15:59:56;5.90;;;4.80;;
16543;SDS011;8384;47.996;7.786;2022-08-30T16:02:22;5.00;;;4.60;;
16543;SDS011;8384;47.996;7.786;2022-08-30T16:04:47;5.20;;;4.80;;
16543;SDS011;8384;47.996;7.786;2022-08-30T16:07:12;6.00;;;5.20;;
16543;SDS011;8384;47.996;7.786;2022-08-30T16:09:39;6.00;;;5.23;;
16543;SDS011;8384;47.996;7.786;2022-08-30T16:12:05;5.40;;;4.93;;
16543;SDS011;8384;47.996;7.786;2022-08-30T16:14:31;5.20;;;4.70;;
16543;SDS011;8384;47.996;7.786;2022-08-30T16:16:57;4.83;;;4.43;;
16543;SDS011;8384;47.996;7.786;2022-08-30T16:19:23;5.07;;;4.57;;
16543;SDS011;8384;47.996;7.786;2022-08-30T16:21:48;5.00;;;4.50;;
16543;SDS011;8384;47.996;7.786;2022-08-30T16:24:14;12.97;;;5.50;;
16543;SDS011;8384;47.996;7.786;2022-08-30T16:26:41;5.20;;;4.57;;
16543;SDS011;8384;47.996;7.786;2022-08-30T16:29:06;5.27;;;4.77;;